Time;durP1;ratioP1;P1;durP2;ratioP2;P2;SDS_P1;SDS_P2;PMS_P1;PMS_P2;Temp;Humidity;BMP_temperature;BMP_pressure;BME280_temperature;BME280_humidity;BME280_pressure;Samples;Min_cycle;Max_cycle;Signal;HPM_P1;HPM_P2
2023/06/16 00:00:52;;;;;;;7.65;4.38;;;;;;;;;;5073288;28;20094;-77
2023/06/16 00:03:18;;;;;;;6.78;4.78;;;;;;;;;;5073690;28;20045;-77
2023/06/16 00:05:46;;;;;;;10.90;4.50;;;;;;;;;;5056810;28;20036;-77
2023/06/16 00:08:12;;;;;;;6.43;4.00;;;;;;;;;;5073178;28;20105;-77
2023/06/16 00:10:38;;;;;;;8.05;4.45;;;;;;;;;;5073839;28;20044;-77
2023/06/16 00:13:04;;;;;;;7.63;4.93;;;;;;;;;;5072950;28;20032;-77
2023/06/16 00:15:30;;;;;;;11.20;4.72;;;;;;;;;;5049979;28;20068;-77
2023/06/16 00:17:57;;;;;;;9.48;5.18;;;;;;;;;;5054107;28;20037;-77
2023/06/16 00:20:26;;;;;;;11.32;5.00;;;;;;;;;;5073469;28;20086;-77
2023/06/16 00:22:52;;;;;;;9.55;5.07;;;;;;;;;;5056412;28;20032;-77
2023/06/16 00:25:19;;;;;;;6.47;4.93;;;;;;;;;;5073338;28;20116;-77
2023/06/16 00:27:45;;;;;;;6.85;4.22;;;;;;;;;;5073030;28;20040;-77
2023/06/16 00:30:11;;;;;;;11.45;5.28;;;;;;;;;;5072816;28;20043;-77
2023/06/16 00:32:38;;;;;;;6.15;4.18;;;;;;;;;;5072045;28;20044;-77
2023/06/16 00:35:04;;;;;;;10.15;5.03;;;;;;;;;;5063683;28;20040;-77
2023/06/16 00:37:30;;;;;;;8.38;4.72;;;;;;;;;;5056261;28;20093;-77
2023/06/16 00:39:56;;;;;;;10.00;5.78;;;;;;;;;;5072648;28;20051;-77
2023/06/16 00:42:22;;;;;;;9.18;5.93;;;;;;;;;;5025809;28;20507;-77
2023/06/16 00:44:48;;;;;;;7.47;5.20;;;;;;;;;;5073047;28;20392;-76
2023/06/16 00:47:14;;;;;;;11.05;7.07;;;;;;;;;;5072528;28;20037;-77
2023/06/16 00:49:41;;;;;;;12.57;5.88;;;;;;;;;;5072684;28;20216;-77
2023/06/16 00:52:08;;;;;;;9.85;6.15;;;;;;;;;;5072171;28;20055;-77
2023/06/16 00:54:34;;;;;;;10.75;5.75;;;;;;;;;;5072707;28;20052;-77
2023/06/16 00:57:00;;;;;;;8.10;5.78;;;;;;;;;;5072504;28;20044;-77
2023/06/16 00:59:27;;;;;;;11.68;6.78;;;;;;;;;;5072848;28;20048;-77
2023/06/16 01:01:55;;;;;;;12.75;6.32;;;;;;;;;;5073830;28;20037;-77
2023/06/16 01:04:24;;;;;;;9.30;5.88;;;;;;;;;;5072540;28;20040;-77
2023/06/16 01:06:57;;;;;;;11.25;6.78;;;;;;;;;;5055940;28;20126;-76
2023/06/16 01:09:42;;;;;;;9.63;6.50;;;;;;;;;;5055771;28;20098;-76
2023/06/16 01:12:08;;;;;;;11.13;7.13;;;;;;;;;;5072363;28;20447;-77
2023/06/16 01:14:53;;;;;;;12.43;6.75;;;;;;;;;;5055875;28;20039;-77
2023/06/16 01:17:21;;;;;;;10.68;7.43;;;;;;;;;;5103275;28;20123;-76
2023/06/16 01:19:50;;;;;;;9.77;6.80;;;;;;;;;;5072366;28;20048;-76
2023/06/16 01:22:29;;;;;;;10.60;6.95;;;;;;;;;;5072166;28;20071;-76
2023/06/16 01:24:57;;;;;;;10.20;7.15;;;;;;;;;;5072748;28;20123;-76
2023/06/16 01:27:24;;;;;;;11.80;7.53;;;;;;;;;;5072214;28;20508;-83
2023/06/16 01:29:51;;;;;;;14.32;7.50;;;;;;;;;;5072316;28;20049;-82
2023/06/16 01:32:20;;;;;;;10.85;8.30;;;;;;;;;;5055447;28;20497;-82
2023/06/16 01:34:47;;;;;;;11.88;7.70;;;;;;;;;;5055557;28;20041;-82
2023/06/16 01:37:15;;;;;;;12.57;7.47;;;;;;;;;;5038687;28;20047;-82
2023/06/16 01:39:41;;;;;;;12.30;8.68;;;;;;;;;;5055552;28;20094;-83
2023/06/16 01:42:08;;;;;;;11.70;8.68;;;;;;;;;;5071539;28;20097;-82
2023/06/16 01:44:35;;;;;;;11.43;7.93;;;;;;;;;;5071663;28;20036;-83
2023/06/16 01:47:01;;;;;;;13.38;8.40;;;;;;;;;;5055105;28;20047;-82
2023/06/16 01:49:27;;;;;;;11.77;8.48;;;;;;;;;;5071862;28;20153;-82
2023/06/16 01:51:53;;;;;;;11.32;8.82;;;;;;;;;;5071636;28;20040;-82
2023/06/16 01:54:19;;;;;;;13.52;8.90;;;;;;;;;;5071574;28;20059;-83
2023/06/16 01:56:45;;;;;;;11.32;8.77;;;;;;;;;;5038561;28;20047;-82
2023/06/16 01:59:12;;;;;;;15.63;9.10;;;;;;;;;;5071446;28;20037;-83
2023/06/16 02:01:40;;;;;;;13.73;9.45;;;;;;;;;;5061216;28;20044;-83
2023/06/16 02:04:17;;;;;;;17.35;9.20;;;;;;;;;;5058185;28;20537;-83
2023/06/16 02:06:45;;;;;;;14.90;9.25;;;;;;;;;;5049919;28;20049;-83
2023/06/16 02:09:13;;;;;;;12.68;8.63;;;;;;;;;;5050839;28;20045;-83
2023/06/16 02:11:39;;;;;;;13.05;8.30;;;;;;;;;;5053941;28;20458;-83
2023/06/16 02:14:05;;;;;;;12.70;8.40;;;;;;;;;;5062059;28;20064;-82
2023/06/16 02:16:52;;;;;;;13.30;8.38;;;;;;;;;;5034578;28;20047;-82
2023/06/16 02:19:18;;;;;;;12.73;8.88;;;;;;;;;;5034500;28;20045;-83
2023/06/16 02:21:44;;;;;;;12.95;9.30;;;;;;;;;;5051036;28;20115;-83
2023/06/16 02:24:10;;;;;;;12.20;9.25;;;;;;;;;;5051056;28;20536;-83
2023/06/16 02:26:39;;;;;;;15.07;10.45;;;;;;;;;;5051144;28;20037;-83
2023/06/16 02:29:05;;;;;;;14.40;10.77;;;;;;;;;;5054006;28;20079;-83
2023/06/16 02:31:32;;;;;;;16.13;10.93;;;;;;;;;;5051023;28;20037;-83
2023/06/16 02:33:58;;;;;;;12.88;10.45;;;;;;;;;;5051015;28;20037;-83
2023/06/16 02:36:24;;;;;;;13.07;9.25;;;;;;;;;;5050937;28;20049;-83
2023/06/16 02:38:50;;;;;;;12.35;9.43;;;;;;;;;;5051130;28;20060;-83
2023/06/16 02:41:17;;;;;;;16.80;11.70;;;;;;;;;;5051009;28;20527;-82
2023/06/16 02:43:43;;;;;;;17.38;12.23;;;;;;;;;;5061740;28;20055;-83
2023/06/16 02:46:09;;;;;;;14.27;9.93;;;;;;;;;;5070670;28;20119;-83
2023/06/16 02:48:35;;;;;;;20.77;10.73;;;;;;;;;;5071779;28;20043;-83
2023/06/16 02:51:01;;;;;;;15.65;11.10;;;;;;;;;;5070686;28;20044;-83
2023/06/16 02:53:29;;;;;;;16.00;11.63;;;;;;;;;;5070765;28;20525;-83
2023/06/16 02:55:58;;;;;;;16.50;11.93;;;;;;;;;;5060076;28;20448;-83
2023/06/16 02:58:24;;;;;;;16.20;12.20;;;;;;;;;;5060517;28;20041;-83
2023/06/16 03:00:50;;;;;;;36.30;14.38;;;;;;;;;;5094605;28;20497;-83
2023/06/16 03:03:17;;;;;;;22.73;11.27;;;;;;;;;;5077124;28;20055;-83
2023/06/16 03:05:44;;;;;;;20.55;13.55;;;;;;;;;;5077433;28;20063;-82
2023/06/16 03:08:10;;;;;;;19.23;13.02;;;;;;;;;;5060972;28;20052;-83
2023/06/16 03:10:36;;;;;;;17.77;12.73;;;;;;;;;;5077244;28;20036;-83
2023/06/16 03:13:02;;;;;;;15.02;10.93;;;;;;;;;;5077456;28;20066;-83
2023/06/16 03:15:30;;;;;;;20.48;10.73;;;;;;;;;;5076733;28;20516;-82
2023/06/16 03:17:56;;;;;;;13.82;10.43;;;;;;;;;;5077698;28;20516;-82
2023/06/16 03:20:23;;;;;;;16.58;11.65;;;;;;;;;;5072444;28;20055;-83
2023/06/16 03:22:49;;;;;;;16.23;12.25;;;;;;;;;;5067638;28;20055;-82
2023/06/16 03:25:15;;;;;;;17.48;12.65;;;;;;;;;;5076813;28;20123;-83
2023/06/16 03:27:42;;;;;;;18.30;15.38;;;;;;;;;;5060559;28;20041;-83
2023/06/16 03:30:08;;;;;;;19.55;15.10;;;;;;;;;;5077252;28;20045;-82
2023/06/16 03:32:37;;;;;;;20.25;14.75;;;;;;;;;;5076934;28;20074;-77
2023/06/16 03:35:04;;;;;;;18.00;13.88;;;;;;;;;;5060876;28;20086;-77
2023/06/16 03:37:31;;;;;;;16.52;12.25;;;;;;;;;;5076670;28;20098;-77
2023/06/16 03:40:03;;;;;;;22.13;13.07;;;;;;;;;;5076973;28;20105;-77
2023/06/16 03:42:29;;;;;;;22.02;13.95;;;;;;;;;;5076629;28;20074;-77
2023/06/16 03:44:55;;;;;;;27.92;15.60;;;;;;;;;;5076944;28;20047;-77
2023/06/16 03:47:22;;;;;;;21.92;16.00;;;;;;;;;;5060168;28;20044;-77
2023/06/16 03:49:48;;;;;;;23.48;16.40;;;;;;;;;;5076980;28;20101;-77
2023/06/16 03:52:14;;;;;;;22.05;15.85;;;;;;;;;;5076553;28;20056;-77
2023/06/16 03:54:40;;;;;;;24.80;16.10;;;;;;;;;;5076464;28;20052;-77
2023/06/16 03:57:06;;;;;;;20.70;16.90;;;;;;;;;;5077112;28;20648;-76
2023/06/16 03:59:32;;;;;;;19.38;16.33;;;;;;;;;;5076425;28;20048;-77
2023/06/16 04:02:06;;;;;;;21.23;16.48;;;;;;;;;;5064860;28;20509;-77
2023/06/16 04:04:32;;;;;;;17.75;14.65;;;;;;;;;;5058189;28;20094;-76
2023/06/16 04:07:00;;;;;;;18.50;15.30;;;;;;;;;;5065301;28;20045;-77
2023/06/16 04:09:26;;;;;;;17.73;14.50;;;;;;;;;;5053184;28;20049;-77
2023/06/16 04:11:52;;;;;;;22.95;16.23;;;;;;;;;;5036696;28;20044;-77
2023/06/16 04:14:18;;;;;;;20.35;14.98;;;;;;;;;;5036776;28;20040;-77
2023/06/16 04:16:44;;;;;;;24.65;15.25;;;;;;;;;;5053464;28;20516;-77
2023/06/16 04:19:14;;;;;;;29.05;16.50;;;;;;;;;;5054568;28;20045;-77
2023/06/16 04:21:43;;;;;;;22.80;16.13;;;;;;;;;;5052940;28;20048;-77
2023/06/16 04:24:10;;;;;;;25.88;16.40;;;;;;;;;;5053498;28;20049;-77
2023/06/16 04:26:37;;;;;;;22.13;16.20;;;;;;;;;;5052627;28;20080;-77
2023/06/16 04:29:05;;;;;;;25.13;15.70;;;;;;;;;;5053143;28;20040;-77
2023/06/16 04:31:35;;;;;;;19.75;15.02;;;;;;;;;;5052798;28;20052;-77
2023/06/16 04:34:04;;;;;;;18.38;13.93;;;;;;;;;;5053357;28;20460;-77
2023/06/16 04:36:31;;;;;;;24.45;16.17;;;;;;;;;;5052652;28;20049;-77
2023/06/16 04:38:58;;;;;;;21.17;14.95;;;;;;;;;;5053051;28;20145;-77
2023/06/16 04:41:24;;;;;;;19.48;13.40;;;;;;;;;;5052738;28;20064;-77
2023/06/16 04:43:50;;;;;;;19.55;15.15;;;;;;;;;;5047788;28;20055;-77
2023/06/16 04:46:17;;;;;;;18.02;16.05;;;;;;;;;;5072767;28;20040;-77
2023/06/16 04:48:43;;;;;;;24.42;16.08;;;;;;;;;;5072955;28;20700;-77
2023/06/16 04:51:09;;;;;;;24.45;15.55;;;;;;;;;;5072561;28;20044;-77
2023/06/16 04:53:36;;;;;;;19.30;15.73;;;;;;;;;;5055794;28;20044;-77
2023/06/16 04:56:02;;;;;;;18.40;15.50;;;;;;;;;;5056231;28;20057;-77
2023/06/16 04:58:29;;;;;;;22.60;15.27;;;;;;;;;;5073611;28;20112;-77
2023/06/16 05:00:55;;;;;;;18.92;15.55;;;;;;;;;;5089527;28;20040;-77
2023/06/16 05:03:22;;;;;;;21.17;15.45;;;;;;;;;;5072941;28;20421;-77
2023/06/16 05:05:48;;;;;;;21.67;14.68;;;;;;;;;;5072645;28;20401;-77
2023/06/16 05:08:14;;;;;;;21.38;15.98;;;;;;;;;;5055870;28;20041;-77
2023/06/16 05:10:40;;;;;;;17.45;14.77;;;;;;;;;;5055960;28;20477;-77
2023/06/16 05:13:06;;;;;;;20.80;13.73;;;;;;;;;;5058114;28;20040;-78
2023/06/16 05:15:32;;;;;;;18.70;15.13;;;;;;;;;;5071445;28;20106;-77
2023/06/16 05:17:59;;;;;;;20.75;15.98;;;;;;;;;;5071992;28;20132;-77
2023/06/16 05:20:25;;;;;;;16.73;14.25;;;;;;;;;;5039370;28;20489;-77
2023/06/16 05:22:51;;;;;;;18.25;15.27;;;;;;;;;;5071810;28;20169;-78
2023/06/16 05:25:17;;;;;;;16.27;14.52;;;;;;;;;;5072197;28;20441;-78
2023/06/16 05:27:43;;;;;;;17.50;15.48;;;;;;;;;;5055209;28;20037;-77
2023/06/16 05:30:09;;;;;;;20.77;15.90;;;;;;;;;;5072195;28;20053;-78
2023/06/16 05:32:35;;;;;;;21.60;14.23;;;;;;;;;;5072899;28;20043;-77
2023/06/16 05:35:01;;;;;;;19.45;15.18;;;;;;;;;;5072155;28;20086;-77
2023/06/16 05:37:28;;;;;;;21.70;14.35;;;;;;;;;;5072092;28;20036;-78
2023/06/16 05:39:55;;;;;;;21.50;15.40;;;;;;;;;;5073370;28;20036;-78
2023/06/16 05:42:21;;;;;;;20.15;14.43;;;;;;;;;;5071694;28;20044;-78
2023/06/16 05:44:47;;;;;;;22.85;15.10;;;;;;;;;;5071441;28;20079;-78
2023/06/16 05:47:13;;;;;;;20.38;14.50;;;;;;;;;;5071870;28;20043;-78
2023/06/16 05:49:39;;;;;;;16.42;14.18;;;;;;;;;;5072722;28;20509;-77
2023/06/16 05:52:06;;;;;;;16.00;12.35;;;;;;;;;;5071526;28;20084;-78
2023/06/16 05:54:38;;;;;;;18.05;13.20;;;;;;;;;;5054986;28;20535;-78
2023/06/16 05:57:04;;;;;;;16.52;13.60;;;;;;;;;;5071629;28;20044;-78
2023/06/16 05:59:30;;;;;;;15.60;14.00;;;;;;;;;;5071219;28;20094;-77
2023/06/16 06:01:57;;;;;;;16.75;12.90;;;;;;;;;;5041885;28;20507;-78
2023/06/16 06:04:30;;;;;;;13.68;10.82;;;;;;;;;;5071513;28;20046;-78
2023/06/16 06:06:57;;;;;;;15.50;11.23;;;;;;;;;;5071154;28;20497;-78
2023/06/16 06:09:23;;;;;;;15.13;10.57;;;;;;;;;;5071528;28;20041;-78
2023/06/16 06:11:50;;;;;;;11.30;8.57;;;;;;;;;;5070848;28;20036;-78
2023/06/16 06:14:17;;;;;;;11.00;8.73;;;;;;;;;;5071518;28;20090;-78
2023/06/16 06:16:43;;;;;;;10.65;7.47;;;;;;;;;;5070467;28;20435;-77
2023/06/16 06:19:09;;;;;;;12.02;8.70;;;;;;;;;;5071225;28;20040;-78
2023/06/16 06:21:36;;;;;;;9.00;7.93;;;;;;;;;;5071191;28;20123;-78
2023/06/16 06:24:02;;;;;;;8.50;7.15;;;;;;;;;;5071544;28;20048;-78
2023/06/16 06:26:28;;;;;;;10.63;8.40;;;;;;;;;;5071284;28;20045;-78
2023/06/16 06:28:55;;;;;;;10.77;8.55;;;;;;;;;;5037609;28;20151;-78
2023/06/16 06:31:21;;;;;;;8.23;7.32;;;;;;;;;;5071232;28;20044;-78
2023/06/16 06:33:47;;;;;;;10.57;7.47;;;;;;;;;;5054129;28;20072;-78
2023/06/16 06:36:20;;;;;;;11.38;7.60;;;;;;;;;;5054936;28;20485;-78
2023/06/16 06:38:47;;;;;;;11.02;7.20;;;;;;;;;;5054396;28;20056;-78
2023/06/16 06:41:13;;;;;;;11.43;8.10;;;;;;;;;;5072659;28;20032;-78
2023/06/16 06:43:40;;;;;;;20.90;8.65;;;;;;;;;;5071065;28;20044;-78
2023/06/16 06:46:06;;;;;;;19.27;6.55;;;;;;;;;;5072081;28;20119;-78
2023/06/16 06:48:32;;;;;;;11.65;7.22;;;;;;;;;;5072643;28;20497;-78
2023/06/16 06:50:58;;;;;;;9.23;7.45;;;;;;;;;;5071445;28;20044;-78
2023/06/16 06:53:24;;;;;;;9.57;7.97;;;;;;;;;;5071229;28;20044;-78
2023/06/16 06:55:50;;;;;;;9.57;8.20;;;;;;;;;;5072344;28;20055;-78
2023/06/16 06:58:16;;;;;;;8.05;7.10;;;;;;;;;;5071997;28;20123;-78
2023/06/16 07:00:42;;;;;;;8.10;6.90;;;;;;;;;;5071680;28;20120;-78
2023/06/16 07:03:08;;;;;;;10.45;7.07;;;;;;;;;;5071363;28;20044;-78
2023/06/16 07:05:34;;;;;;;10.23;8.63;;;;;;;;;;5071280;28;20124;-78
2023/06/16 07:08:01;;;;;;;10.82;8.50;;;;;;;;;;5054359;28;20072;-78
2023/06/16 07:10:29;;;;;;;8.90;7.60;;;;;;;;;;5071001;28;20043;-78
2023/06/16 07:12:56;;;;;;;10.35;8.43;;;;;;;;;;5054102;28;20072;-78
2023/06/16 07:15:22;;;;;;;12.10;8.48;;;;;;;;;;5070157;28;20112;-78
2023/06/16 07:17:48;;;;;;;12.63;9.45;;;;;;;;;;5070670;28;20473;-78
2023/06/16 07:20:14;;;;;;;12.07;9.95;;;;;;;;;;5070680;28;20420;-77
2023/06/16 07:22:42;;;;;;;13.15;9.13;;;;;;;;;;5070562;28;20033;-78
2023/06/16 07:25:09;;;;;;;13.00;10.05;;;;;;;;;;5070226;28;20055;-77
2023/06/16 07:27:35;;;;;;;14.13;9.18;;;;;;;;;;5070498;28;20112;-78
2023/06/16 07:30:01;;;;;;;10.90;8.80;;;;;;;;;;5070166;28;20124;-78
2023/06/16 07:32:27;;;;;;;9.13;8.23;;;;;;;;;;5070334;28;20045;-78
2023/06/16 07:34:53;;;;;;;10.27;9.18;;;;;;;;;;5053542;28;20074;-78
2023/06/16 07:37:20;;;;;;;10.15;7.32;;;;;;;;;;5053931;28;20041;-87
2023/06/16 07:39:46;;;;;;;8.80;7.90;;;;;;;;;;5070053;28;20112;-78
2023/06/16 07:42:12;;;;;;;9.68;7.60;;;;;;;;;;5056859;28;20508;-78
2023/06/16 07:44:38;;;;;;;10.93;7.25;;;;;;;;;;5074002;28;20097;-78
2023/06/16 07:47:04;;;;;;;12.90;7.10;;;;;;;;;;5073710;28;20340;-78
2023/06/16 07:49:31;;;;;;;10.95;6.90;;;;;;;;;;5074044;28;20048;-78
2023/06/16 07:51:57;;;;;;;8.45;5.90;;;;;;;;;;5073473;28;20037;-78
2023/06/16 07:54:23;;;;;;;10.25;6.18;;;;;;;;;;5073637;28;20052;-78
2023/06/16 07:56:50;;;;;;;6.50;5.47;;;;;;;;;;5056941;28;20044;-78
2023/06/16 07:59:16;;;;;;;7.68;6.22;;;;;;;;;;5074040;28;20055;-78
2023/06/16 08:01:44;;;;;;;8.70;5.43;;;;;;;;;;5073840;28;20170;-78
2023/06/16 08:04:11;;;;;;;11.05;5.05;;;;;;;;;;5073998;28;20087;-78
2023/06/16 08:06:37;;;;;;;11.05;5.80;;;;;;;;;;5075120;28;20072;-78
2023/06/16 08:09:05;;;;;;;7.80;5.00;;;;;;;;;;5073746;28;20172;-78
2023/06/16 08:11:31;;;;;;;14.40;5.57;;;;;;;;;;5073948;28;20052;-87
2023/06/16 08:13:57;;;;;;;7.78;5.13;;;;;;;;;;5073648;28;20119;-88
2023/06/16 08:16:23;;;;;;;6.50;4.70;;;;;;;;;;5056838;28;20174;-87
2023/06/16 08:18:50;;;;;;;6.63;4.30;;;;;;;;;;5073806;28;20040;-87
2023/06/16 08:21:16;;;;;;;7.93;4.63;;;;;;;;;;5074233;28;20123;-87
2023/06/16 08:23:42;;;;;;;5.82;4.10;;;;;;;;;;5073631;28;20048;-87
2023/06/16 08:26:09;;;;;;;4.70;4.10;;;;;;;;;;5073018;28;20123;-87
2023/06/16 08:28:40;;;;;;;8.40;4.40;;;;;;;;;;5073413;28;20045;-87
2023/06/16 08:31:06;;;;;;;4.97;3.95;;;;;;;;;;5073040;28;20097;-87
2023/06/16 08:33:32;;;;;;;13.57;4.97;;;;;;;;;;5056552;28;20048;-87
2023/06/16 08:35:59;;;;;;;5.95;4.68;;;;;;;;;;5056361;28;20037;-87
2023/06/16 08:38:25;;;;;;;5.82;3.97;;;;;;;;;;5073626;28;20504;-87
2023/06/16 08:40:51;;;;;;;7.55;3.83;;;;;;;;;;5068426;28;20389;-87
2023/06/16 08:43:17;;;;;;;11.35;4.72;;;;;;;;;;5064141;28;20040;-87
2023/06/16 08:45:45;;;;;;;9.52;4.20;;;;;;;;;;5073261;28;20041;-87
2023/06/16 08:48:11;;;;;;;6.18;4.18;;;;;;;;;;5074053;28;20082;-87
2023/06/16 08:50:38;;;;;;;8.95;4.45;;;;;;;;;;5056385;28;20047;-87
2023/06/16 08:53:08;;;;;;;6.70;3.70;;;;;;;;;;5069316;28;20428;-87
2023/06/16 08:55:37;;;;;;;9.40;3.80;;;;;;;;;;5064421;28;20047;-87
2023/06/16 08:58:03;;;;;;;10.35;3.90;;;;;;;;;;5072891;28;20401;-87
2023/06/16 09:00:31;;;;;;;7.03;4.70;;;;;;;;;;5072902;28;20040;-87
2023/06/16 09:02:59;;;;;;;6.63;4.53;;;;;;;;;;5055995;28;20045;-88
2023/06/16 09:05:26;;;;;;;8.68;4.55;;;;;;;;;;5056303;28;20036;-87
2023/06/16 09:07:53;;;;;;;9.93;4.18;;;;;;;;;;5072777;28;20062;-86
2023/06/16 09:10:19;;;;;;;7.30;4.40;;;;;;;;;;5055858;28;20079;-86
2023/06/16 09:12:51;;;;;;;7.25;4.57;;;;;;;;;;5073118;28;20105;-86
2023/06/16 09:15:18;;;;;;;5.55;4.45;;;;;;;;;;5054807;28;20128;-87
2023/06/16 09:17:44;;;;;;;9.25;4.60;;;;;;;;;;5072506;28;20040;-87
2023/06/16 09:20:17;;;;;;;5.70;4.40;;;;;;;;;;5055744;28;20049;-87
2023/06/16 09:22:43;;;;;;;8.68;4.97;;;;;;;;;;5072332;28;20041;-86
2023/06/16 09:25:12;;;;;;;6.60;4.90;;;;;;;;;;5055469;28;20427;-86
2023/06/16 09:27:44;;;;;;;6.40;4.32;;;;;;;;;;5072207;28;20520;-86
2023/06/16 09:30:14;;;;;;;10.27;4.05;;;;;;;;;;5055572;28;20037;-87
2023/06/16 09:32:41;;;;;;;8.18;3.47;;;;;;;;;;5072458;28;20143;-87
2023/06/16 09:35:17;;;;;;;5.50;4.07;;;;;;;;;;5055064;28;20173;-87
2023/06/16 09:37:43;;;;;;;6.45;4.18;;;;;;;;;;5073671;28;20465;-87
2023/06/16 09:40:10;;;;;;;5.00;3.47;;;;;;;;;;5055615;28;20390;-87
2023/06/16 09:42:37;;;;;;;9.38;3.88;;;;;;;;;;5072210;28;20044;-87
2023/06/16 09:45:10;;;;;;;9.15;3.85;;;;;;;;;;5072961;28;20036;-87
2023/06/16 09:47:37;;;;;;;12.55;3.95;;;;;;;;;;5071799;28;20067;-87
2023/06/16 09:50:06;;;;;;;12.73;3.60;;;;;;;;;;5071661;28;20048;-87
2023/06/16 09:52:34;;;;;;;10.25;3.63;;;;;;;;;;5071787;28;20052;-85
2023/06/16 09:55:01;;;;;;;5.18;3.60;;;;;;;;;;5071470;28;20048;-86
2023/06/16 09:57:28;;;;;;;7.00;3.63;;;;;;;;;;5072086;28;20053;-86
2023/06/16 09:59:54;;;;;;;5.80;3.00;;;;;;;;;;5067955;28;20151;-86
2023/06/16 10:02:21;;;;;;;4.38;3.28;;;;;;;;;;5061122;28;20048;-86
2023/06/16 10:04:49;;;;;;;14.93;3.60;;;;;;;;;;5071271;28;20054;-86
2023/06/16 10:07:15;;;;;;;10.60;4.13;;;;;;;;;;5071187;28;20041;-86
2023/06/16 10:09:46;;;;;;;6.70;3.25;;;;;;;;;;5071292;28;20062;-86
2023/06/16 10:12:13;;;;;;;8.13;3.63;;;;;;;;;;5035013;28;20470;-87
2023/06/16 10:14:39;;;;;;;6.38;3.30;;;;;;;;;;5064669;28;20076;-87
2023/06/16 10:17:07;;;;;;;5.95;3.10;;;;;;;;;;5035434;28;20055;-86
2023/06/16 10:19:35;;;;;;;5.85;3.33;;;;;;;;;;5051531;28;20075;-87
2023/06/16 10:22:02;;;;;;;6.47;3.20;;;;;;;;;;5070221;28;20112;-86
2023/06/16 10:24:28;;;;;;;5.80;3.10;;;;;;;;;;5071426;28;20480;-86
2023/06/16 10:26:55;;;;;;;6.93;3.45;;;;;;;;;;5071074;28;20074;-87
2023/06/16 10:29:21;;;;;;;15.75;3.78;;;;;;;;;;5054373;28;20049;-86
2023/06/16 10:31:51;;;;;;;5.78;2.92;;;;;;;;;;5070743;28;20056;-86
2023/06/16 10:34:22;;;;;;;9.38;3.10;;;;;;;;;;5058113;28;20554;-87
2023/06/16 10:36:51;;;;;;;3.80;3.22;;;;;;;;;;5071027;28;20044;-86
2023/06/16 10:39:18;;;;;;;6.70;3.20;;;;;;;;;;5056736;28;20127;-86
2023/06/16 10:41:56;;;;;;;5.95;2.90;;;;;;;;;;5054257;28;20044;-86
2023/06/16 10:44:29;;;;;;;4.57;3.17;;;;;;;;;;5070659;28;20434;-86
2023/06/16 10:47:10;;;;;;;6.43;2.95;;;;;;;;;;5071081;28;20481;-86
2023/06/16 10:49:50;;;;;;;6.40;3.42;;;;;;;;;;5071207;28;20055;-86
2023/06/16 10:52:19;;;;;;;6.15;3.10;;;;;;;;;;5070354;28;20048;-86
2023/06/16 10:54:51;;;;;;;4.38;3.00;;;;;;;;;;5070819;28;20041;-86
2023/06/16 10:57:17;;;;;;;4.57;2.88;;;;;;;;;;5070398;28;20052;-86
2023/06/16 10:59:53;;;;;;;4.30;2.60;;;;;;;;;;5040175;28;20079;-86
2023/06/16 11:02:26;;;;;;;4.60;2.70;;;;;;;;;;5071793;28;20045;-86
2023/06/16 11:05:07;;;;;;;4.88;2.70;;;;;;;;;;5071042;28;20033;-86
2023/06/16 11:07:46;;;;;;;11.60;3.45;;;;;;;;;;5070809;28;20032;-86
2023/06/16 11:10:17;;;;;;;6.80;3.08;;;;;;;;;;5070575;28;20051;-86
2023/06/16 11:12:43;;;;;;;7.40;2.88;;;;;;;;;;5071081;28;20474;-86
2023/06/16 11:15:09;;;;;;;11.00;3.78;;;;;;;;;;5053279;28;20035;-86
2023/06/16 11:17:36;;;;;;;4.43;2.65;;;;;;;;;;5074427;28;20036;-86
2023/06/16 11:20:06;;;;;;;10.10;3.10;;;;;;;;;;5060530;28;20141;-86
2023/06/16 11:22:32;;;;;;;9.73;2.90;;;;;;;;;;5074277;28;20047;-86
2023/06/16 11:24:59;;;;;;;15.93;3.20;;;;;;;;;;5074465;28;20071;-86
2023/06/16 11:27:26;;;;;;;12.85;3.22;;;;;;;;;;5074137;28;20041;-86
2023/06/16 11:29:54;;;;;;;6.78;2.95;;;;;;;;;;5075769;28;20071;-86
2023/06/16 11:32:32;;;;;;;6.78;2.75;;;;;;;;;;5074034;28;20045;-86
2023/06/16 11:34:59;;;;;;;4.07;2.38;;;;;;;;;;5074466;28;20117;-86
2023/06/16 11:37:40;;;;;;;7.57;2.85;;;;;;;;;;5069354;28;20136;-86
2023/06/16 11:40:07;;;;;;;11.30;2.70;;;;;;;;;;5066971;28;20040;-86
2023/06/16 11:42:34;;;;;;;6.43;2.90;;;;;;;;;;5074005;28;20501;-86
2023/06/16 11:45:00;;;;;;;3.72;2.67;;;;;;;;;;5074186;28;20047;-85
2023/06/16 11:47:26;;;;;;;10.05;3.00;;;;;;;;;;5060718;28;20045;-86
2023/06/16 11:49:52;;;;;;;7.72;2.50;;;;;;;;;;5073392;28;20489;-79
2023/06/16 11:52:18;;;;;;;5.00;2.78;;;;;;;;;;5073578;28;20040;-78
2023/06/16 11:54:45;;;;;;;6.72;2.78;;;;;;;;;;5057119;28;20044;-78
2023/06/16 11:57:13;;;;;;;12.43;2.80;;;;;;;;;;5074020;28;20051;-77
2023/06/16 11:59:40;;;;;;;4.95;2.67;;;;;;;;;;5073311;28;20088;-77
2023/06/16 12:02:08;;;;;;;5.47;2.50;;;;;;;;;;5074020;28;20098;-77
2023/06/16 12:04:34;;;;;;;4.45;2.60;;;;;;;;;;5073296;28;20074;-77
2023/06/16 12:07:01;;;;;;;4.95;2.60;;;;;;;;;;5073762;28;20119;-77
2023/06/16 12:09:39;;;;;;;5.60;2.80;;;;;;;;;;5057040;28;20084;-77
2023/06/16 12:12:07;;;;;;;4.85;3.00;;;;;;;;;;5046220;28;20037;-77
2023/06/16 12:14:37;;;;;;;7.18;2.78;;;;;;;;;;5073154;28;20119;-77
2023/06/16 12:17:03;;;;;;;5.95;2.80;;;;;;;;;;5072719;28;20047;-77
2023/06/16 12:19:29;;;;;;;19.70;3.90;;;;;;;;;;5056719;28;20131;-77
2023/06/16 12:22:00;;;;;;;7.15;2.80;;;;;;;;;;5073653;28;20044;-77
2023/06/16 12:24:27;;;;;;;3.72;2.72;;;;;;;;;;5072966;28;20055;-77
2023/06/16 12:26:53;;;;;;;5.72;2.83;;;;;;;;;;5072404;28;20123;-77
2023/06/16 12:29:20;;;;;;;6.80;2.42;;;;;;;;;;5072303;28;20043;-77
2023/06/16 12:31:53;;;;;;;10.73;3.15;;;;;;;;;;5073475;28;20115;-77
2023/06/16 12:34:20;;;;;;;4.10;2.70;;;;;;;;;;5072770;28;20081;-77
2023/06/16 12:36:47;;;;;;;4.70;2.60;;;;;;;;;;5039981;28;20041;-77
2023/06/16 12:39:17;;;;;;;4.82;2.90;;;;;;;;;;5072918;28;20040;-77
2023/06/16 12:41:54;;;;;;;5.50;3.25;;;;;;;;;;5072756;28;20124;-77
2023/06/16 12:44:20;;;;;;;5.20;3.00;;;;;;;;;;5072680;28;20500;-77
2023/06/16 12:46:47;;;;;;;5.15;3.00;;;;;;;;;;5072987;28;20040;-77
2023/06/16 12:49:13;;;;;;;9.70;3.13;;;;;;;;;;5073143;28;20044;-77
2023/06/16 12:51:39;;;;;;;4.22;2.72;;;;;;;;;;5055825;28;20090;-77
2023/06/16 12:54:05;;;;;;;8.38;2.92;;;;;;;;;;5072605;28;20040;-77
2023/06/16 12:56:31;;;;;;;3.85;2.63;;;;;;;;;;5072502;28;20379;-77
2023/06/16 12:58:57;;;;;;;7.32;2.90;;;;;;;;;;5074110;28;20044;-77
2023/06/16 13:01:23;;;;;;;5.75;3.10;;;;;;;;;;5072451;28;20123;-77
2023/06/16 13:03:50;;;;;;;6.22;2.95;;;;;;;;;;5074043;28;20089;-77
2023/06/16 13:06:18;;;;;;;5.43;2.95;;;;;;;;;;5072453;28;20040;-77
2023/06/16 13:08:46;;;;;;;6.60;2.90;;;;;;;;;;5072637;28;20516;-77
2023/06/16 13:11:12;;;;;;;7.57;2.92;;;;;;;;;;5072699;28;20040;-77
2023/06/16 13:13:38;;;;;;;4.53;2.67;;;;;;;;;;5072084;28;20064;-77
2023/06/16 13:16:05;;;;;;;5.57;2.85;;;;;;;;;;5071997;28;20546;-77
2023/06/16 13:18:31;;;;;;;7.50;2.83;;;;;;;;;;5055234;28;20115;-77
2023/06/16 13:20:59;;;;;;;3.78;2.85;;;;;;;;;;5055949;28;20044;-77
2023/06/16 13:23:25;;;;;;;7.80;3.25;;;;;;;;;;5071953;28;20041;-77
2023/06/16 13:25:51;;;;;;;5.30;2.60;;;;;;;;;;5072066;28;20045;-77
2023/06/16 13:28:17;;;;;;;10.18;2.80;;;;;;;;;;5072088;28;20044;-77
2023/06/16 13:30:43;;;;;;;7.57;2.80;;;;;;;;;;5071840;28;20048;-77
2023/06/16 13:33:09;;;;;;;6.88;2.90;;;;;;;;;;5055879;28;20124;-77
2023/06/16 13:35:35;;;;;;;7.72;2.80;;;;;;;;;;5054983;28;20396;-78
2023/06/16 13:38:02;;;;;;;5.82;2.90;;;;;;;;;;5073354;28;20071;-77
2023/06/16 13:40:28;;;;;;;14.70;3.28;;;;;;;;;;5071061;28;20115;-77
2023/06/16 13:42:54;;;;;;;4.60;2.40;;;;;;;;;;5071769;28;20040;-77
2023/06/16 13:45:20;;;;;;;5.55;2.13;;;;;;;;;;5071798;28;20041;-77
2023/06/16 13:47:46;;;;;;;4.95;2.70;;;;;;;;;;5054548;28;20121;-77
2023/06/16 13:50:12;;;;;;;4.80;2.70;;;;;;;;;;5071606;28;20044;-77
2023/06/16 13:52:39;;;;;;;6.50;2.60;;;;;;;;;;5071420;28;20079;-77
2023/06/16 13:55:05;;;;;;;18.40;3.17;;;;;;;;;;5073103;28;20071;-77
2023/06/16 13:57:31;;;;;;;5.80;2.60;;;;;;;;;;5071118;28;20044;-77
2023/06/16 13:59:59;;;;;;;10.07;2.80;;;;;;;;;;5054884;28;20132;-77
2023/06/16 14:02:25;;;;;;;5.63;2.67;;;;;;;;;;5071772;28;20072;-77
2023/06/16 14:04:52;;;;;;;5.57;2.50;;;;;;;;;;5071190;28;20044;-77
2023/06/16 14:07:18;;;;;;;4.28;2.30;;;;;;;;;;5054675;28;20089;-77
2023/06/16 14:09:44;;;;;;;8.05;3.00;;;;;;;;;;5054880;28;20490;-77
2023/06/16 14:12:11;;;;;;;5.05;2.45;;;;;;;;;;5071498;28;20047;-77
2023/06/16 14:14:37;;;;;;;7.97;2.65;;;;;;;;;;5071169;28;20502;-77
2023/06/16 14:17:03;;;;;;;5.22;2.50;;;;;;;;;;5070297;28;20040;-77
2023/06/16 14:19:29;;;;;;;7.53;2.72;;;;;;;;;;5071489;28;20063;-77
2023/06/16 14:21:55;;;;;;;7.45;2.60;;;;;;;;;;5070916;28;20048;-77
2023/06/16 14:24:22;;;;;;;8.63;2.80;;;;;;;;;;5071163;28;20048;-77
2023/06/16 14:26:48;;;;;;;4.53;2.55;;;;;;;;;;5053985;28;20431;-77
2023/06/16 14:29:14;;;;;;;7.47;2.47;;;;;;;;;;5037877;28;20136;-77
2023/06/16 14:31:40;;;;;;;8.45;2.88;;;;;;;;;;5070597;28;20051;-77
2023/06/16 14:34:07;;;;;;;10.93;2.92;;;;;;;;;;5071366;28;20037;-77